Latest Coastal Weather Observations for Laverton

IDV60701

Issued at 11:25 am EDT Saturday 22 November 2014 (issued every 10 minutes, with the page automatically refreshed every 10 minutes)

About coastal observations | Map of coastal stations | Coastal observations for VIC | Marine services | Other Formats
Station Details ID: 087031 Name: LAVERTON RAAF Lat: -37.86 Lon: 144.76 Height: 20.1 m
Data from the previous 72 hours. | See also: Recent months at Laverton
Date/Time
EDT
Temp

°C
Wind Pressure Rain
since 9am
mm
Weather Cloud Vis
km
Sea
Height
m
Swell
Dir
 
Speed
knots
Gust
knots
hPa Trend Height
m
Period
s
Dir
22/11:00am 22.2 NNE 8 11 1009.7 - 0.0 - Partly cloudy 10 - - - -
22/10:30am 20.5 NNE 6 8 1010.0 - 0.0 - - 10 - - - -
22/10:00am 18.8 NNE 6 9 1010.5 - 0.0 - Partly cloudy 10 - - - -
22/09:30am 17.7 N 3 4 1010.8 - 0.0 - - 10 - - - -
22/09:00am 16.7 N 4 6 1011.4 - 0.8 - Cloudy 10 - - - -
22/08:30am 15.6 N 4 6 1011.2 - 0.8 - - 10 - - - -
22/08:00am 14.1 NNW 1 5 1011.2 - 0.8 - - 10 - - - -
22/07:30am 13.3 CALM 0 0 1010.6 - 0.8 - - 10 - - - -
22/07:00am 12.4 CALM 0 0 1010.6 - 0.8 - - 10 - - - -
22/06:30am 11.1 WSW 4 5 1010.3 - 0.8 - - 10 - - - -
22/06:00am 10.8 N 5 7 1009.8 - 0.8 - Mostly clear 10 - - - -
22/05:30am 10.8 N 7 9 1009.7 - 0.8 - - 10 - - - -
22/05:00am 9.6 NNW 5 5 1010.1 - 0.8 - - 10 - - - -
22/04:30am 9.5 NNW 4 5 1009.9 - 0.8 - - 10 - - - -
22/04:00am 10.1 NW 4 5 1009.7 - 0.8 - - 10 - - - -
22/03:30am 10.4 WNW 5 6 1010.0 - 0.8 - - 10 - - - -
22/03:00am 10.6 NNW 6 7 1010.2 - 0.8 - - 10 - - - -
22/02:30am 10.4 NW 5 6 1010.5 - 0.8 - - 10 - - - -
22/02:00am 10.8 WNW 5 6 1011.1 - 0.8 - - 10 - - - -
22/01:30am 11.4 WNW 5 5 1011.4 - 0.8 - - 10 - - - -
22/01:00am 11.5 WNW 4 5 1011.7 - 0.8 - - 10 - - - -
22/12:30am 11.5 NNW 5 6 1012.2 - 0.8 - - 10 - - - -
22/12:00am 13.1 E 4 6 1012.5 - 0.8 - - 10 - - - -
 
Date/Time
EDT
Temp

°C
Wind Pressure Rain
since 9am
mm
Weather Cloud Vis
km
Sea
Height
m
Swell
Dir
 
Speed
knots
Gust
knots
hPa Trend Height
m
Period
s
Dir
21/11:30pm 14.7 SE 4 6 1012.5 - 0.8 - - 10 - - - -
21/11:00pm 15.2 SE 5 7 1012.8 - 0.8 - - 10 - - - -
21/10:30pm 15.5 SE 6 8 1012.7 - 0.8 - - 10 - - - -
21/10:00pm 15.1 S 4 7 1012.6 - 0.8 - - 10 - - - -
21/09:30pm 15.3 S 8 10 1012.5 - 0.8 - - 10 - - - -
21/09:00pm 15.5 S 8 11 1012.2 - 0.8 - - 10 - - - -
21/08:30pm 15.8 S 9 12 1012.3 - 0.8 - - 10 - - - -
21/08:00pm 16.4 S 10 13 1011.8 - 0.8 - - 10 - - - -
21/07:30pm 17.2 S 8 11 1011.6 - 0.8 - - 10 - - - -
21/07:00pm 17.7 SSE 9 13 1011.2 - 0.8 - - 10 - - - -
21/06:30pm 18.1 SSE 9 13 1010.9 - 0.8 - - 10 - - - -
21/06:00pm 18.7 SSE 10 12 1010.7 - 0.8 - - 10 - - - -
21/05:30pm 18.7 SE 9 13 1010.7 - 0.8 - - 10 - - - -
21/05:00pm 18.8 SSE 11 16 1010.7 - 0.8 - - 10 - - - -
21/04:30pm 18.9 SSE 11 16 1010.8 - 0.8 - - 10 - - - -
21/04:00pm 19.1 SE 12 16 1011.0 - 0.8 - - 10 - - - -
21/03:30pm 19.7 SE 13 17 1011.0 - 0.8 - - 10 - - - -
21/03:00pm 20.5 ESE 11 17 1010.8 - 0.8 - - 10 - - - -
21/02:30pm 21.1 E 10 13 1010.8 - 0.8 - - 10 - - - -
21/02:00pm 21.7 SSW 9 13 1011.1 - 0.8 - - 10 - - - -
21/01:30pm 21.9 WSW 8 15 1011.2 - 0.8 - - 10 - - - -
21/01:00pm 21.4 WSW 9 15 1011.4 - 0.8 - Partly cloudy 10 - - - -
21/12:30pm 21.2 W 6 11 1011.3 - 0.8 - Partly cloudy 10 - - - -
21/12:00pm 20.5 WSW 10 15 1011.4 - 0.8 Recent precip. - 10 - - - -
21/11:30am 19.4 WSW 13 20 1011.7 - 0.6 - Partly cloudy 10 - - - -
21/11:00am 19.0 SW 12 17 1011.8 - 0.6 - Partly cloudy 10 - - - -
21/10:30am 18.3 W 10 14 1011.4 - 0.6 - Partly cloudy 10 - - - -
21/10:00am 17.6 W 10 12 1010.9 - 0.0 - Partly cloudy 10 - - - -
21/09:30am 17.1 WSW 11 15 1011.2 - 0.0 - Partly cloudy 10 - - - -
21/09:00am 16.2 WSW 12 18 1011.2 - 0.0 - Cloudy 10 - - - -
21/08:30am 16.0 WSW 13 18 1010.8 - 0.0 - Partly cloudy 10 - - - -
21/08:00am 15.5 WSW 17 23 1010.5 - 0.0 - Partly cloudy 10 - - - -
21/07:30am 15.9 WSW 11 14 1009.7 - 0.0 - Partly cloudy 10 - - - -
21/07:00am 15.9 W 6 8 1009.0 - 0.0 - Partly cloudy 10 - - - -
21/06:30am 15.9 W 5 8 1008.6 - 0.0 - Partly cloudy 10 - - - -
21/06:00am 16.1 W 7 11 1008.2 - 0.0 - Cloudy 10 - - - -
21/05:30am 16.3 W 7 10 1007.9 - 0.0 - Partly cloudy 10 - - - -
21/05:00am 16.2 W 9 12 1007.4 - 0.0 - Partly cloudy 10 - - - -
21/04:30am 16.2 WSW 13 22 1007.0 - 0.0 - Cloudy 10 - - - -
21/04:00am 16.3 WSW 9 12 1006.4 - 0.0 - Partly cloudy 10 - - - -
21/03:30am 16.4 SW 13 19 1006.1 - 0.0 - Cloudy 10 - - - -
21/03:00am 16.8 SW 13 19 1006.0 - 0.0 - Cloudy 10 - - - -
21/02:30am 17.7 SW 15 23 1005.6 - 0.0 - Partly cloudy 10 - - - -
21/02:00am 19.5 NNW 4 6 1005.1 - 0.0 - Partly cloudy 10 - - - -
21/01:30am 19.2 N 4 5 1005.1 - 0.0 - - 10 - - - -
21/01:00am 20.2 NNW 8 12 1005.0 - 0.0 - - 10 - - - -
21/12:30am 19.4 NE 6 8 1005.1 - 0.0 - - 10 - - - -
21/12:00am 19.0 ESE 4 5 1005.1 - 0.0 - - 10 - - - -
 
Date/Time
EDT
Temp

°C
Wind Pressure Rain
since 9am
mm
Weather Cloud Vis
km
Sea
Height
m
Swell
Dir
 
Speed
knots
Gust
knots
hPa Trend Height
m
Period
s
Dir
20/11:30pm 20.1 N 5 8 1005.1 - 0.0 - - 10 - - - -
20/11:00pm 20.4 N 8 11 1005.2 - 0.0 - - 10 - - - -
20/10:30pm 20.9 NNW 12 17 1005.5 - 0.0 - - 10 - - - -
20/10:00pm 20.6 NNW 10 13 1005.9 - 0.0 - Partly cloudy 10 - - - -
20/09:30pm 20.4 NNW 7 11 1005.9 - 0.0 - Partly cloudy 10 - - - -
20/09:00pm 21.3 N 9 11 1005.8 - 0.0 - Cloudy 10 - - - -
20/08:30pm 21.3 N 6 9 1006.1 - 0.0 - Partly cloudy 10 - - - -
20/08:00pm 20.9 N 9 16 1005.7 - 0.0 - Partly cloudy 10 - - - -
20/07:30pm 21.7 N 7 10 1006.3 - 0.0 - Partly cloudy 10 - - - -
20/07:00pm 22.3 NNW 5 8 1006.4 - 0.0 - Cloudy 10 - - - -
20/06:30pm 22.7 NNW 8 13 1006.3 - 0.0 - Cloudy 10 - - - -
20/06:00pm 23.0 NW 10 13 1006.3 - 0.0 - Partly cloudy 10 - - - -
20/05:30pm 22.8 WNW 5 7 1006.2 - 0.0 - Partly cloudy 10 - - - -
20/05:00pm 23.4 W 7 9 1006.1 - 0.0 - Cloudy 10 - - - -
20/04:30pm 23.3 W 10 15 1006.0 - 0.0 - Partly cloudy 10 - - - -
20/04:02pm 24.4 W 15 25 1006.1 - 0.0 - Partly cloudy 10 - - - -
20/04:00pm 24.6 W 15 22 1006.1 - 0.0 - Partly cloudy 10 - - - -
20/03:30pm 26.3 W 18 29 1005.4 - 0.0 - Partly cloudy 10 - - - -
20/03:28pm 26.4 W 18 28 1005.4 - 0.0 - Partly cloudy 10 - - - -
20/03:00pm 27.3 W 21 30 1004.7 - 0.0 - Cloudy 10 - - - -
20/02:30pm 27.9 WSW 16 27 1004.3 - 0.0 - Partly cloudy 10 - - - -
20/02:05pm 28.3 W 15 25 1004.5 - 0.0 - Partly cloudy 10 - - - -
20/02:00pm 28.3 WSW 15 21 1004.7 - 0.0 - Partly cloudy 10 - - - -
20/01:43pm 28.6 WSW 16 26 1004.9 - 0.0 - Partly cloudy 10 - - - -
20/01:41pm 29.8 W 15 23 1004.9 - 0.0 - Partly cloudy 10 - - - -
20/01:30pm 30.1 NW 9 13 1004.6 - 0.0 - Partly cloudy 10 - - - -
20/01:00pm 28.5 NNW 13 20 1004.8 - 0.0 - - 10 - - - -
20/12:30pm 28.3 NNW 15 24 1004.6 - 0.0 - Partly cloudy 10 - - - -
20/12:00pm 26.6 NNE 11 17 1004.6 - 0.0 - Cloudy 10 - - - -
20/11:30am 26.7 N 12 18 1005.1 - 0.0 - - 10 - - - -
20/11:00am 27.4 N 11 15 1005.1 - 0.0 - - 10 - - - -
20/10:30am 26.4 N 15 22 1005.4 - 0.0 - - 10 - - - -
20/10:00am 26.5 N 14 23 1005.6 - 0.0 - - 10 - - - -
20/09:30am 25.5 N 17 24 1005.9 - 0.0 - - 10 - - - -
20/09:04am 25.2 N 16 27 1006.2 - 0.0 - - 10 - - - -
20/09:00am 25.1 N 16 25 1006.3 - 0.0 - Mostly cloudy 10 - - - -
20/08:44am 24.5 N 16 29 1006.0 - 0.0 - - 10 - - - -
20/08:30am 24.2 N 16 24 1006.2 - 0.0 - - 10 - - - -
20/08:00am 23.9 N 19 30 1006.1 - 0.0 - - 10 - - - -
20/07:37am 23.9 N 18 31 1006.3 - 0.0 - - 10 - - - -
20/07:30am 23.8 N 17 26 1006.4 - 0.0 - - 10 - - - -
20/07:07am 23.8 N 15 25 1006.4 - 0.0 - - 10 - - - -
20/07:00am 23.9 N 15 23 1006.4 - 0.0 - - 10 - - - -
20/06:30am 23.6 N 11 17 1006.6 - 0.0 - Partly cloudy 10 - - - -
20/06:00am 22.4 NNE 9 13 1006.5 - 0.0 - Partly cloudy 10 - - - -
20/05:30am 21.6 NNE 7 10 1006.6 - 0.0 - - 10 - - - -
20/05:00am 22.1 NNE 10 14 1006.5 - 0.0 - Partly cloudy 10 - - - -
20/04:30am 21.7 N 11 16 1006.8 - 0.0 - Partly cloudy 10 - - - -
20/04:00am 21.6 N 11 16 1007.1 - 0.0 - - 10 - - - -
20/03:30am 22.6 N 11 17 1007.4 - 0.0 - - 10 - - - -
20/03:00am 22.8 N 12 17 1007.6 - 0.0 - Cloudy 10 - - - -
20/02:30am 22.6 N 11 18 1007.8 - 0.0 - - 10 - - - -
20/02:00am 22.5 N 9 14 1007.8 - 0.0 - - 10 - - - -
20/01:30am 21.2 N 6 8 1008.6 - 0.0 - - 10 - - - -
20/01:00am 18.8 W 1 5 1009.2 - 0.0 - - 10 - - - -
20/12:30am 19.5 WSW 2 4 1010.0 - 0.0 - - 10 - - - -
20/12:00am 19.6 W 3 4 1010.4 - 0.0 - Mostly cloudy 10 - - - -
 
Date/Time
EDT
Temp

°C
Wind Pressure Rain
since 9am
mm
Weather Cloud Vis
km
Sea
Height
m
Swell
Dir
 
Speed
knots
Gust
knots
hPa Trend Height
m
Period
s
Dir
19/11:30pm 20.5 W 4 5 1010.5 - 0.0 - - 10 - - - -
19/11:00pm 22.2 N 8 11 1010.8 - 0.0 - - 10 - - - -
19/10:30pm 22.8 N 7 10 1011.1 - 0.0 - - 10 - - - -
19/10:00pm 23.7 N 8 11 1010.9 - 0.0 - - 10 - - - -
19/09:30pm 24.3 N 7 9 1010.9 - 0.0 - - 10 - - - -
19/09:00pm 24.9 N 7 10 1011.0 - 0.0 - - 10 - - - -
19/08:30pm 25.0 N 7 11 1011.0 - 0.0 - - 10 - - - -
19/08:00pm 25.8 N 5 7 1011.0 - 0.0 - - 10 - - - -
19/07:30pm 25.8 NE 4 8 1011.0 - 0.0 - - 10 - - - -
19/07:00pm 26.1 E 6 8 1011.1 - 0.0 - - 10 - - - -
19/06:30pm 26.9 E 6 8 1011.1 - 0.0 - - 10 - - - -
19/06:00pm 27.3 ESE 6 9 1011.4 - 0.0 - - 10 - - - -
19/05:30pm 27.1 ESE 6 8 1011.8 - 0.0 - - 10 - - - -
19/05:00pm 27.0 SE 8 10 1012.0 - 0.0 - - 10 - - - -
19/04:30pm 26.8 SE 7 10 1012.6 - 0.0 - - 10 - - - -
19/04:00pm 25.6 SSE 10 13 1012.8 - 0.0 - - 10 - - - -
19/03:30pm 25.2 SSE 10 15 1013.2 - 0.0 - - 10 - - - -
19/03:00pm 26.9 SSE 9 13 1013.4 - 0.0 - - 10 - - - -
19/02:40pm 27.3 NNW 15 30 1013.3 - 0.0 - - 10 - - - -
19/02:30pm 26.6 E 11 15 1013.8 - 0.0 - - 10 - - - -
19/02:00pm 26.0 E 10 15 1014.4 - 0.0 - - 10 - - - -
19/01:30pm 26.1 N 8 13 1014.9 - 0.0 - - 10 - - - -
19/01:00pm 24.9 NE 7 11 1016.0 - 0.0 - - 10 - - - -
19/12:30pm 24.1 E 5 9 1016.5 - 0.0 - - 10 - - - -
19/12:00pm 23.3 ENE 6 10 1016.8 - 0.0 - Mostly clear 10 - - - -
19/11:30am 22.1 ENE 7 11 1017.4 - 0.0 - - 10 - - - -

Other Formats:

Comma delimited format used in spreadsheet applications
http://www.bom.gov.au/fwo/IDV60701/IDV60701.94865.axf

JavaScript Object Notation format (JSON) in row-major order
http://www.bom.gov.au/fwo/IDV60701/IDV60701.94865.json